Aérodrome :
LOGIN :

S'inscrire | Disclaimer

   EN    FR    IT 

 










Légende :    VFR   VFR Marginal   IFR   IFR Intensif   IFR Très Intensif
Visi : 
Plafond : 
>= 8 km
>= 3000ft
5 à 8 km
1000 à 3000 ft
1500m à 5 km
500 à 1000 ft
800 à 1500m
200 à 500 ft
< 800m
< 200 ft
Symboles :   Orages  Brouillard  Fortes neiges  Fortes précipitations  Vent > 20 kt
SIGMETs :   Divers  Orages  Givrage  Turbulence  Onde Orograph.  Cendres Volcan.






- Altitude de l'aérodrome : 755 ft
- Code IATA : RWN


UKLR - Rivne

DERNIER METAR :
  • 071200Z 34005MPS 9999 SCT033CB 16/14 Q1011 NOSIG

METARs EXPIRÉS :
  • 071100Z 33005MPS 300V360 9999 SCT032 SCT032CB 16/14 Q1011 NOSIG
  • 071000Z 34005MPS 290V010 9999 -SHRA SCT030 SCT030CB 15/14 Q1010 NOSIG

TAF TAF UKLR
Valide du 07 à 12h jusqu'au 07 à 21h UTC


071110Z 0712/0721 33006MPS 9999 BKN010 SCT013CB
TEMPO 0712/0718 34009G15MPS 2100 -TSRAGR BKN007 BKN013CB



MET'MAP, la Météo Aéronautique d'un coup d'oeil ! - Copyright ORBIFLY Décembre 2007 - Disclaimer

ORBIFLY MET'MAP TEAM :

Programmation & Développement : Alexandra Zaïnal
Sur une idée originale de : Baudouin d'Aumeries
Assistance à la programmation : Marc-Olivier Méhu
Soutien technique & logistique : Manuel Goepfert

Contact : metmap@orbifly.com




SOURCES & CREDITS :

   NOAA